Time;durP1;ratioP1;P1;durP2;ratioP2;P2;SDS_P1;SDS_P2;PMS_P1;PMS_P2;Temp;Humidity;BMP_temperature;BMP_pressure;BME280_temperature;BME280_humidity;BME280_pressure;Samples;Min_cycle;Max_cycle;Signal;HPM_P1;HPM_P2
2023/09/21 00:01:04;;;;;;;5.65;2.35;;;18.70;99.90;;;;;;4954001;29;20577;-67
2023/09/21 00:03:30;;;;;;;4.65;2.72;;;18.70;99.90;;;;;;4954757;29;20234;-66
2023/09/21 00:05:57;;;;;;;4.63;2.47;;;18.70;99.90;;;;;;4955259;29;20195;-68
2023/09/21 00:08:26;;;;;;;6.63;2.50;;;18.70;99.90;;;;;;4954816;29;20179;-67
2023/09/21 00:10:52;;;;;;;6.47;2.20;;;18.70;99.90;;;;;;4937482;29;20897;-68
2023/09/21 00:13:19;;;;;;;5.40;2.80;;;18.70;99.90;;;;;;4950465;29;20189;-67
2023/09/21 00:15:45;;;;;;;5.22;2.72;;;18.70;99.90;;;;;;4955000;29;20199;-67
2023/09/21 00:18:13;;;;;;;7.88;2.40;;;18.70;99.90;;;;;;4954416;29;20182;-67
2023/09/21 00:23:08;;;;;;;7.45;2.30;;;18.70;99.90;;;;;;4953656;29;20187;-67
2023/09/21 00:25:35;;;;;;;6.32;2.97;;;18.80;99.90;;;;;;4954948;29;20647;-67
2023/09/21 00:28:07;;;;;;;4.10;2.50;;;18.80;99.90;;;;;;4942173;29;20191;-67
2023/09/21 00:30:35;;;;;;;5.82;2.58;;;18.80;99.90;;;;;;4953317;28;20190;-66
2023/09/21 00:33:02;;;;;;;8.18;2.50;;;18.80;99.90;;;;;;4935703;29;21098;-68
2023/09/21 00:35:29;;;;;;;5.75;2.22;;;18.80;99.90;;;;;;4935619;29;20318;-68
2023/09/21 00:37:56;;;;;;;7.55;2.53;;;18.80;99.90;;;;;;4937715;29;20186;-67
2023/09/21 00:40:22;;;;;;;4.00;2.40;;;18.80;99.90;;;;;;4953963;29;20190;-67
2023/09/21 00:42:51;;;;;;;4.40;2.65;;;18.80;99.90;;;;;;4936020;29;20246;-67
2023/09/21 00:45:21;;;;;;;5.72;2.55;;;18.80;99.90;;;;;;4954011;29;20178;-66
2023/09/21 00:47:51;;;;;;;7.43;2.50;;;18.80;99.90;;;;;;4954364;29;20183;-67
2023/09/21 00:50:22;;;;;;;4.75;2.30;;;18.80;99.90;;;;;;4953795;29;20210;-67
2023/09/21 00:52:51;;;;;;;3.88;2.30;;;18.90;99.90;;;;;;4937650;29;20667;-67
2023/09/21 00:55:39;;;;;;;7.30;2.47;;;18.90;99.90;;;;;;4936640;29;20254;-67
2023/09/21 00:58:07;;;;;;;5.88;2.65;;;18.90;99.90;;;;;;4953939;29;20193;-67
2023/09/21 01:00:33;;;;;;;5.35;2.67;;;18.90;99.90;;;;;;4953983;29;20199;-66
2023/09/21 01:03:11;;;;;;;5.32;2.58;;;18.90;99.90;;;;;;4954017;29;20286;-67
2023/09/21 01:05:44;;;;;;;6.68;2.40;;;18.90;99.90;;;;;;4948232;29;20281;-66
2023/09/21 01:08:13;;;;;;;7.60;2.72;;;18.90;99.90;;;;;;4934829;29;20178;-66
2023/09/21 01:10:44;;;;;;;5.38;2.47;;;18.90;99.90;;;;;;4953168;29;20643;-67
2023/09/21 01:13:12;;;;;;;7.05;2.72;;;18.90;99.90;;;;;;4935875;29;20189;-67
2023/09/21 01:15:45;;;;;;;7.32;2.50;;;18.90;99.90;;;;;;4950106;29;20656;-67
2023/09/21 01:18:12;;;;;;;9.80;2.72;;;18.90;99.90;;;;;;4951120;29;20269;-68
2023/09/21 01:20:38;;;;;;;6.13;2.90;;;18.90;99.90;;;;;;4953477;29;20663;-66
2023/09/21 01:23:17;;;;;;;4.40;2.60;;;18.90;99.90;;;;;;4935392;29;20222;-67
2023/09/21 01:25:45;;;;;;;7.10;2.65;;;18.90;99.90;;;;;;4951765;29;20206;-68
2023/09/21 01:28:17;;;;;;;6.90;2.67;;;19.00;99.90;;;;;;4952667;29;20197;-67
2023/09/21 01:30:43;;;;;;;5.40;2.63;;;19.00;99.90;;;;;;4950736;29;20665;-68
2023/09/21 01:33:11;;;;;;;4.90;2.60;;;19.00;99.90;;;;;;4932044;29;20194;-66
2023/09/21 01:35:38;;;;;;;5.32;2.65;;;19.00;99.90;;;;;;4946545;29;20194;-68
2023/09/21 01:38:08;;;;;;;7.10;2.88;;;19.00;99.90;;;;;;4932133;29;20605;-67
2023/09/21 01:40:35;;;;;;;6.65;2.88;;;19.00;99.90;;;;;;4947810;29;20183;-67
2023/09/21 01:43:17;;;;;;;7.05;2.90;;;19.10;99.90;;;;;;4931445;29;21206;-68
2023/09/21 01:45:48;;;;;;;6.20;2.60;;;19.10;99.90;;;;;;4948895;29;20273;-66
2023/09/21 01:48:15;;;;;;;5.53;2.70;;;19.10;99.90;;;;;;4929847;29;20261;-67
2023/09/21 01:50:48;;;;;;;5.30;2.63;;;19.10;99.90;;;;;;4923128;29;20205;-68
2023/09/21 01:53:19;;;;;;;4.78;2.40;;;19.10;99.90;;;;;;4930237;29;20209;-66
2023/09/21 01:55:47;;;;;;;7.78;2.70;;;19.10;99.90;;;;;;4931750;29;20666;-69
2023/09/21 01:58:15;;;;;;;6.55;2.90;;;19.10;99.90;;;;;;4931295;29;20187;-67
2023/09/21 02:00:43;;;;;;;5.35;2.60;;;19.10;99.90;;;;;;4961582;28;20202;-67
2023/09/21 02:03:09;;;;;;;6.80;2.30;;;19.10;99.90;;;;;;4921953;28;1146132;-67
2023/09/21 02:05:36;;;;;;;9.77;2.92;;;19.10;99.90;;;;;;4962420;28;20190;-67
2023/09/21 02:08:05;;;;;;;7.35;2.83;;;19.10;99.90;;;;;;4931460;29;20187;-66
2023/09/21 02:10:32;;;;;;;5.50;2.60;;;19.10;99.90;;;;;;4936203;29;20575;-67
2023/09/21 02:12:59;;;;;;;5.68;2.75;;;19.00;99.90;;;;;;4953215;29;20193;-67
2023/09/21 02:15:26;;;;;;;6.55;2.95;;;19.00;99.90;;;;;;4920669;29;20222;-68
2023/09/21 02:17:55;;;;;;;8.07;3.03;;;19.00;99.90;;;;;;4933868;29;20242;-66
2023/09/21 02:20:23;;;;;;;5.60;2.55;;;19.00;99.90;;;;;;4960608;28;20259;-67
2023/09/21 02:22:51;;;;;;;8.02;2.60;;;19.00;99.90;;;;;;4950418;29;20194;-66
2023/09/21 02:25:18;;;;;;;6.60;2.63;;;19.00;99.90;;;;;;4936038;29;20274;-67
2023/09/21 02:27:48;;;;;;;6.25;2.80;;;19.00;99.90;;;;;;4951348;29;20190;-67
2023/09/21 02:30:17;;;;;;;4.97;2.70;;;19.00;99.90;;;;;;4931204;29;20186;-67
2023/09/21 02:32:50;;;;;;;6.07;2.70;;;19.00;99.90;;;;;;4953182;29;20221;-66
2023/09/21 02:35:27;;;;;;;6.57;2.40;;;19.00;99.90;;;;;;4935872;29;20198;-67
2023/09/21 02:37:55;;;;;;;7.07;3.13;;;19.00;99.90;;;;;;4935246;29;20213;-66
2023/09/21 02:40:22;;;;;;;7.60;2.40;;;19.00;99.90;;;;;;4952448;29;20191;-67
2023/09/21 02:42:52;;;;;;;3.67;2.63;;;19.00;99.90;;;;;;4953642;29;20610;-67
2023/09/21 02:45:23;;;;;;;6.20;2.35;;;19.00;99.90;;;;;;4952962;29;20183;-67
2023/09/21 02:48:00;;;;;;;3.88;2.58;;;18.90;99.90;;;;;;4953120;29;20187;-67
2023/09/21 02:50:27;;;;;;;5.90;2.60;;;19.00;99.90;;;;;;4931877;29;20190;-67
2023/09/21 02:53:01;;;;;;;8.70;2.70;;;18.90;99.90;;;;;;4936053;29;20219;-67
2023/09/21 02:55:28;;;;;;;5.65;2.58;;;18.90;99.90;;;;;;4955600;28;20205;-67
2023/09/21 02:57:56;;;;;;;4.57;2.50;;;19.00;99.90;;;;;;4939631;29;20193;-66
2023/09/21 03:00:34;;;;;;;6.60;2.72;;;18.90;99.90;;;;;;4954524;29;20191;-66
2023/09/21 03:03:04;;;;;;;5.68;2.50;;;18.90;99.90;;;;;;4970483;28;20232;-67
2023/09/21 03:05:33;;;;;;;6.38;2.70;;;18.90;99.90;;;;;;4923855;29;20266;-67
2023/09/21 03:08:05;;;;;;;6.00;2.50;;;18.90;99.90;;;;;;4939120;29;20186;-67
2023/09/21 03:10:32;;;;;;;3.78;2.03;;;18.90;99.90;;;;;;4935464;29;20187;-67
2023/09/21 03:12:58;;;;;;;5.43;2.63;;;18.90;99.90;;;;;;4929833;29;20217;-68
2023/09/21 03:15:24;;;;;;;5.70;2.60;;;18.90;99.90;;;;;;4937982;29;20578;-67
2023/09/21 03:17:52;;;;;;;6.13;2.60;;;18.90;99.90;;;;;;4955681;29;20217;-66
2023/09/21 03:20:28;;;;;;;6.53;2.70;;;18.90;99.90;;;;;;4938282;29;20269;-66
2023/09/21 03:23:01;;;;;;;3.75;2.42;;;18.90;99.90;;;;;;4955582;29;20202;-66
2023/09/21 03:25:31;;;;;;;6.22;2.72;;;18.90;99.90;;;;;;4938588;29;20266;-67
2023/09/21 03:27:59;;;;;;;3.55;2.80;;;18.90;99.90;;;;;;4937467;29;20194;-67
2023/09/21 03:30:26;;;;;;;4.35;2.53;;;18.90;99.90;;;;;;4954810;29;20183;-67
2023/09/21 03:32:53;;;;;;;6.80;2.58;;;18.90;99.90;;;;;;4948875;28;20596;-67
2023/09/21 03:35:20;;;;;;;6.43;2.63;;;18.90;99.90;;;;;;4955509;29;20210;-68
2023/09/21 03:37:50;;;;;;;5.13;2.90;;;18.80;99.90;;;;;;4954971;29;20183;-67
2023/09/21 03:40:18;;;;;;;3.55;2.65;;;18.80;99.90;;;;;;4954446;29;20554;-67
2023/09/21 03:42:44;;;;;;;5.75;2.22;;;18.80;99.90;;;;;;4934508;29;20257;-66
2023/09/21 03:45:15;;;;;;;5.63;2.33;;;18.80;99.90;;;;;;4918159;29;20533;-67
2023/09/21 03:47:42;;;;;;;4.28;2.40;;;18.90;99.90;;;;;;4955931;29;20194;-67
2023/09/21 03:50:12;;;;;;;3.90;2.58;;;18.90;99.90;;;;;;4937756;29;20194;-68
2023/09/21 03:52:39;;;;;;;4.18;2.40;;;18.90;99.90;;;;;;4936106;29;20242;-67
2023/09/21 03:55:08;;;;;;;8.10;2.72;;;18.90;99.90;;;;;;4935083;29;20226;-67
2023/09/21 03:57:34;;;;;;;6.40;2.90;;;19.00;99.90;;;;;;4938214;29;20187;-67
2023/09/21 04:00:00;;;;;;;5.70;2.45;;;19.00;99.90;;;;;;4922378;29;20685;-68
2023/09/21 04:02:26;;;;;;;3.72;2.28;;;19.10;99.90;;;;;;4936479;29;20187;-68
2023/09/21 04:04:52;;;;;;;8.55;2.65;;;19.10;99.90;;;;;;4911471;29;20198;-68
2023/09/21 04:07:19;;;;;;;4.28;2.33;;;19.10;99.90;;;;;;4913853;29;20196;-67
2023/09/21 04:09:46;;;;;;;6.45;2.50;;;19.20;99.90;;;;;;4899661;29;20275;-69
2023/09/21 04:12:13;;;;;;;7.05;2.47;;;19.20;99.90;;;;;;4916670;29;20196;-66
2023/09/21 04:14:45;;;;;;;5.60;2.65;;;19.30;99.90;;;;;;4914863;29;20224;-67
2023/09/21 04:17:11;;;;;;;4.07;2.33;;;19.30;99.90;;;;;;4943921;29;20276;-68
2023/09/21 04:19:37;;;;;;;9.23;2.67;;;19.30;99.90;;;;;;4912683;29;20589;-68
2023/09/21 04:22:04;;;;;;;5.85;2.30;;;19.30;99.90;;;;;;4931252;29;20200;-67
2023/09/21 04:24:30;;;;;;;5.47;2.22;;;19.30;99.90;;;;;;4915874;29;20227;-67
2023/09/21 04:26:56;;;;;;;4.28;2.58;;;19.30;99.90;;;;;;4930854;29;20223;-66
2023/09/21 04:29:22;;;;;;;4.50;2.35;;;19.30;99.90;;;;;;4946893;29;20188;-67
2023/09/21 04:31:48;;;;;;;5.53;2.40;;;19.30;99.90;;;;;;4915969;29;20200;-68
2023/09/21 04:34:14;;;;;;;6.53;2.53;;;19.30;99.90;;;;;;4916194;29;20529;-67
2023/09/21 04:36:40;;;;;;;7.20;2.80;;;19.30;99.90;;;;;;4913606;29;20202;-67
2023/09/21 04:39:06;;;;;;;6.85;2.60;;;19.30;99.90;;;;;;4915059;29;20283;-66
2023/09/21 04:41:33;;;;;;;3.63;2.58;;;19.30;99.90;;;;;;4946512;29;20188;-67
2023/09/21 04:44:00;;;;;;;4.10;2.20;;;19.30;99.90;;;;;;4914515;29;20192;-68
2023/09/21 04:46:26;;;;;;;5.47;2.30;;;19.30;99.90;;;;;;4914996;29;20608;-68
2023/09/21 04:48:52;;;;;;;5.25;2.58;;;19.20;99.90;;;;;;4942504;29;20188;-68
2023/09/21 04:51:18;;;;;;;5.90;2.80;;;19.20;99.90;;;;;;4929441;29;20196;-68
2023/09/21 04:53:45;;;;;;;4.93;2.50;;;19.10;99.90;;;;;;4946611;29;20267;-67
2023/09/21 04:56:11;;;;;;;5.32;2.80;;;19.10;99.90;;;;;;4911433;29;20200;-69
2023/09/21 04:58:37;;;;;;;3.40;2.50;;;19.10;99.90;;;;;;4913490;29;20645;-68
2023/09/21 05:01:09;;;;;;;5.68;2.70;;;19.10;99.90;;;;;;4914159;29;20259;-70
2023/09/21 05:03:37;;;;;;;4.63;2.45;;;19.10;99.90;;;;;;4925782;28;20700;-68
2023/09/21 05:06:04;;;;;;;4.22;2.60;;;19.00;99.90;;;;;;4930689;29;20229;-71
2023/09/21 05:08:36;;;;;;;4.72;2.60;;;19.00;99.90;;;;;;4912663;29;20188;-69
2023/09/21 05:11:05;;;;;;;9.98;2.55;;;19.00;99.90;;;;;;4957976;28;20195;-70
2023/09/21 05:13:31;;;;;;;9.38;3.00;;;19.00;99.90;;;;;;4928750;29;20218;-70
2023/09/21 05:15:57;;;;;;;4.20;2.38;;;18.90;99.90;;;;;;4932785;29;20226;-70
2023/09/21 05:18:23;;;;;;;3.75;2.30;;;18.90;99.90;;;;;;4933395;29;20661;-71
2023/09/21 05:20:50;;;;;;;4.47;2.60;;;18.90;99.90;;;;;;4915402;29;20188;-70
2023/09/21 05:23:16;;;;;;;6.38;2.63;;;18.90;99.90;;;;;;4943444;29;20195;-76
2023/09/21 05:25:41;;;;;;;6.85;2.47;;;18.90;99.90;;;;;;4935316;29;20703;-79
2023/09/21 05:28:07;;;;;;;7.05;3.05;;;18.90;99.90;;;;;;4935764;29;20708;-81
2023/09/21 05:30:33;;;;;;;8.43;2.95;;;18.90;99.90;;;;;;4933076;29;20556;-74
2023/09/21 05:33:01;;;;;;;8.25;2.63;;;18.90;99.90;;;;;;4935317;29;20190;-76
2023/09/21 05:35:27;;;;;;;7.47;2.75;;;19.00;99.90;;;;;;4935392;29;20211;-75
2023/09/21 05:37:53;;;;;;;4.53;2.90;;;19.00;99.90;;;;;;4930067;29;20278;-79
2023/09/21 05:40:21;;;;;;;5.45;2.97;;;19.00;99.90;;;;;;4933859;29;20293;-79
2023/09/21 05:42:47;;;;;;;6.05;2.65;;;19.00;99.90;;;;;;4959251;28;20267;-75
2023/09/21 05:45:13;;;;;;;11.38;3.00;;;19.00;99.90;;;;;;4931737;29;20187;-75
2023/09/21 05:47:39;;;;;;;4.88;2.78;;;19.00;99.90;;;;;;4933853;29;20631;-74
2023/09/21 05:50:07;;;;;;;6.00;2.78;;;19.00;99.90;;;;;;4916275;29;20194;-73
2023/09/21 05:52:35;;;;;;;7.82;3.00;;;19.00;99.90;;;;;;4930642;29;20195;-73
2023/09/21 05:55:02;;;;;;;5.78;2.67;;;19.00;99.90;;;;;;4940542;29;20378;-74
2023/09/21 05:57:29;;;;;;;9.30;2.78;;;19.10;99.90;;;;;;4928996;29;20195;-71
2023/09/21 05:59:55;;;;;;;2.72;2.25;;;19.10;99.90;;;;;;4964989;28;20200;-72
2023/09/21 06:02:22;;;;;;;5.30;2.90;;;19.20;99.90;;;;;;4931476;29;20179;-72
2023/09/21 06:04:48;;;;;;;4.93;2.90;;;19.20;99.90;;;;;;4927671;29;20239;-74
2023/09/21 06:07:14;;;;;;;6.25;2.70;;;19.20;99.90;;;;;;4929544;29;20198;-72
2023/09/21 06:09:43;;;;;;;9.57;2.83;;;19.30;99.90;;;;;;4958176;28;20195;-72
2023/09/21 06:12:10;;;;;;;7.50;3.70;;;19.30;99.90;;;;;;4931713;29;20218;-73
2023/09/21 06:14:36;;;;;;;5.63;3.38;;;19.30;99.90;;;;;;4920136;29;20572;-72
2023/09/21 06:17:05;;;;;;;5.78;2.55;;;19.30;99.90;;;;;;4929403;29;20191;-73
2023/09/21 06:19:37;;;;;;;5.65;2.60;;;19.40;99.90;;;;;;4957771;28;20206;-72
2023/09/21 06:22:04;;;;;;;5.63;2.92;;;19.40;99.90;;;;;;4926643;29;20267;-73
2023/09/21 06:24:31;;;;;;;5.57;2.72;;;19.50;99.90;;;;;;4926701;29;20187;-73
2023/09/21 06:26:57;;;;;;;7.05;2.72;;;19.50;99.90;;;;;;4924143;29;20287;-74
2023/09/21 06:29:23;;;;;;;7.53;2.72;;;19.50;99.90;;;;;;4931920;29;20195;-75
2023/09/21 06:31:54;;;;;;;6.15;2.65;;;19.50;99.90;;;;;;4935681;29;20195;-74
2023/09/21 06:34:24;;;;;;;6.05;2.70;;;19.50;99.90;;;;;;4936396;29;20290;-73
2023/09/21 06:36:52;;;;;;;6.25;2.83;;;19.60;99.90;;;;;;4935928;29;20199;-73
2023/09/21 06:39:21;;;;;;;6.32;2.78;;;19.50;99.90;;;;;;4937253;29;20278;-73
2023/09/21 06:41:47;;;;;;;5.45;2.63;;;19.60;99.90;;;;;;4931345;29;20255;-72
2023/09/21 06:44:15;;;;;;;6.10;3.30;;;19.60;99.90;;;;;;4967600;28;21190;-71
2023/09/21 06:46:41;;;;;;;8.02;3.22;;;19.60;99.90;;;;;;4937454;29;20240;-73
2023/09/21 06:49:07;;;;;;;4.55;2.40;;;19.60;99.90;;;;;;4935696;29;20183;-74
2023/09/21 06:51:33;;;;;;;9.70;3.38;;;19.60;99.90;;;;;;4936391;29;20546;-73
2023/09/21 06:54:00;;;;;;;6.55;2.80;;;19.60;99.90;;;;;;4914027;29;20211;-73
2023/09/21 06:56:29;;;;;;;7.13;2.65;;;19.60;99.90;;;;;;4961454;28;20198;-73
2023/09/21 06:58:56;;;;;;;7.85;2.92;;;19.60;99.90;;;;;;4937242;29;20860;-74
2023/09/21 07:01:23;;;;;;;4.97;3.10;;;19.60;99.90;;;;;;4934948;29;20195;-72
2023/09/21 07:03:49;;;;;;;3.90;2.80;;;19.60;99.90;;;;;;4945095;29;20238;-73
2023/09/21 07:06:19;;;;;;;5.45;2.97;;;19.60;99.90;;;;;;4938012;29;20225;-73
2023/09/21 07:08:48;;;;;;;8.23;2.80;;;19.60;99.90;;;;;;4955522;29;20186;-73
2023/09/21 07:11:15;;;;;;;9.63;3.00;;;19.60;99.90;;;;;;4936693;29;20191;-76
2023/09/21 07:13:42;;;;;;;4.25;3.00;;;19.60;99.90;;;;;;4955568;29;20190;-73
2023/09/21 07:16:08;;;;;;;4.00;2.85;;;19.50;99.90;;;;;;4949379;29;20199;-73
2023/09/21 07:18:36;;;;;;;12.07;2.88;;;19.50;99.90;;;;;;4955393;29;20631;-71
2023/09/21 07:21:03;;;;;;;6.15;2.90;;;19.50;99.90;;;;;;4968594;28;20195;-72
2023/09/21 07:23:29;;;;;;;5.80;2.88;;;19.40;99.90;;;;;;4938393;29;20209;-74
2023/09/21 07:25:57;;;;;;;5.60;2.90;;;19.40;99.90;;;;;;4933889;29;20556;-72
2023/09/21 07:28:24;;;;;;;10.73;4.90;;;19.30;99.90;;;;;;4947850;29;20187;-72
2023/09/21 07:30:52;;;;;;;9.00;5.50;;;19.30;99.90;;;;;;4949288;29;20221;-72
2023/09/21 07:33:21;;;;;;;6.53;3.17;;;19.30;99.90;;;;;;4955613;29;20261;-73
2023/09/21 07:35:48;;;;;;;8.63;2.90;;;19.30;99.90;;;;;;4938977;29;20225;-74
2023/09/21 07:38:14;;;;;;;8.13;3.50;;;19.20;99.90;;;;;;4952167;29;20660;-72
2023/09/21 07:40:40;;;;;;;5.57;3.03;;;19.30;99.90;;;;;;4964377;28;20197;-72
2023/09/21 07:43:06;;;;;;;7.30;3.25;;;19.20;99.90;;;;;;4952011;29;20247;-74
2023/09/21 07:45:33;;;;;;;6.47;3.10;;;19.30;99.90;;;;;;4931455;29;20565;-74
2023/09/21 07:47:59;;;;;;;6.25;2.80;;;19.30;99.90;;;;;;4943170;29;20187;-72
2023/09/21 07:50:26;;;;;;;9.88;3.25;;;19.30;99.90;;;;;;4932713;29;20265;-74
2023/09/21 07:52:54;;;;;;;6.10;3.65;;;19.30;99.90;;;;;;4946522;29;20549;-74
2023/09/21 07:55:20;;;;;;;7.70;3.30;;;19.30;99.90;;;;;;4937443;29;20206;-76
2023/09/21 07:57:47;;;;;;;6.03;3.00;;;19.30;99.90;;;;;;4937765;29;20651;-73
2023/09/21 08:00:14;;;;;;;5.00;3.20;;;19.30;99.90;;;;;;4932767;28;20274;-74
2023/09/21 08:02:40;;;;;;;7.22;3.75;;;19.30;99.90;;;;;;4931652;29;20198;-76
2023/09/21 08:05:06;;;;;;;5.07;3.40;;;19.30;99.90;;;;;;4964541;28;20237;-75
2023/09/21 08:07:33;;;;;;;5.43;3.17;;;19.30;99.90;;;;;;4955498;29;20227;-77
2023/09/21 08:10:03;;;;;;;9.88;3.30;;;19.30;99.90;;;;;;4954752;29;20191;-81
2023/09/21 08:12:30;;;;;;;6.68;3.15;;;19.30;99.90;;;;;;4953874;28;20453;-78
2023/09/21 08:14:57;;;;;;;7.13;4.53;;;19.30;99.90;;;;;;4954682;28;20655;-78
2023/09/21 08:17:23;;;;;;;9.20;3.45;;;19.30;99.90;;;;;;4937266;29;20195;-75
2023/09/21 08:19:49;;;;;;;5.40;3.67;;;19.30;99.90;;;;;;4953240;29;20194;-74
2023/09/21 08:22:15;;;;;;;5.80;3.47;;;19.30;99.90;;;;;;4953887;29;20258;-74
2023/09/21 08:24:41;;;;;;;7.55;3.75;;;19.20;99.90;;;;;;4918595;29;20274;-76
2023/09/21 08:27:10;;;;;;;9.60;5.30;;;19.20;99.90;;;;;;4952424;29;20198;-70
2023/09/21 08:29:36;;;;;;;6.07;3.40;;;19.20;99.90;;;;;;4925315;29;20286;-76
2023/09/21 08:32:03;;;;;;;8.95;4.10;;;19.10;99.90;;;;;;4941054;29;20631;-76
2023/09/21 08:34:30;;;;;;;7.13;3.53;;;19.10;99.90;;;;;;4945762;29;20233;-79
2023/09/21 08:36:56;;;;;;;6.13;3.72;;;19.10;99.90;;;;;;4961768;28;20194;-77
2023/09/21 08:39:22;;;;;;;6.07;3.50;;;19.10;99.90;;;;;;4955276;28;20190;-78
2023/09/21 08:41:50;;;;;;;11.45;3.65;;;19.10;99.90;;;;;;4948013;29;20213;-77
2023/09/21 08:44:19;;;;;;;6.13;3.70;;;19.10;99.90;;;;;;4950649;29;20198;-76
2023/09/21 08:46:49;;;;;;;7.88;4.18;;;19.10;99.90;;;;;;4954256;29;20745;-79
2023/09/21 08:49:17;;;;;;;4.78;3.58;;;19.10;99.90;;;;;;4953715;29;20182;-74
2023/09/21 08:51:44;;;;;;;7.25;3.85;;;19.10;99.90;;;;;;4953653;28;20943;-73
2023/09/21 08:54:14;;;;;;;7.55;3.88;;;19.00;99.90;;;;;;4917863;29;20221;-73
2023/09/21 08:56:43;;;;;;;7.15;5.05;;;19.00;99.90;;;;;;4933406;29;20550;-72
2023/09/21 08:59:09;;;;;;;8.45;4.50;;;19.00;99.90;;;;;;4948808;29;20609;-72
2023/09/21 09:01:36;;;;;;;5.38;3.90;;;18.90;99.90;;;;;;4952189;29;20432;-72
2023/09/21 09:04:02;;;;;;;7.10;4.15;;;18.90;99.90;;;;;;4949792;28;20245;-72
2023/09/21 09:06:29;;;;;;;8.02;4.18;;;18.80;99.90;;;;;;4950478;29;20217;-72
2023/09/21 09:08:56;;;;;;;9.98;3.92;;;18.70;99.90;;;;;;4937180;29;20314;-73
2023/09/21 09:11:34;;;;;;;5.68;3.92;;;18.70;99.90;;;;;;4953710;29;20251;-73
2023/09/21 09:14:01;;;;;;;9.20;3.92;;;18.60;99.90;;;;;;4951275;28;20313;-72
2023/09/21 09:16:28;;;;;;;9.20;4.25;;;18.60;99.90;;;;;;4953294;28;20194;-71
2023/09/21 09:19:00;;;;;;;2.50;1.52;;;18.50;99.90;;;;;;4951071;29;20191;-72
2023/09/21 09:21:26;;;;;;;2.35;1.50;;;18.50;99.90;;;;;;4955113;28;20261;-73
2023/09/21 09:23:52;;;;;;;3.10;1.63;;;18.30;99.90;;;;;;4953131;29;20194;-74
2023/09/21 09:26:19;;;;;;;5.15;2.17;;;18.10;99.90;;;;;;4951833;29;20217;-72
2023/09/21 09:28:45;;;;;;;5.47;1.60;;;17.90;99.90;;;;;;4942058;29;20187;-75
2023/09/21 09:31:11;;;;;;;3.22;1.52;;;17.90;99.90;;;;;;4945669;29;20203;-72
2023/09/21 09:33:38;;;;;;;4.72;1.27;;;17.70;99.90;;;;;;4933500;28;20191;-74
2023/09/21 09:36:04;;;;;;;2.30;1.10;;;17.60;99.90;;;;;;4951344;28;20202;-74
2023/09/21 09:38:34;;;;;;;2.78;1.42;;;17.40;99.90;;;;;;4941859;29;20191;-72
2023/09/21 09:41:05;;;;;;;1.83;1.10;;;17.30;99.90;;;;;;4946646;29;20282;-70
2023/09/21 09:43:35;;;;;;;2.42;1.38;;;17.20;99.90;;;;;;4946631;29;20202;-72
2023/09/21 09:46:08;;;;;;;3.38;1.38;;;17.10;99.90;;;;;;4948516;29;20237;-72
2023/09/21 09:48:37;;;;;;;3.30;1.50;;;17.00;99.90;;;;;;4936174;29;20209;-70
2023/09/21 09:51:09;;;;;;;3.83;1.30;;;16.90;99.90;;;;;;4952697;29;20638;-74
2023/09/21 09:53:38;;;;;;;2.60;1.50;;;16.90;99.90;;;;;;4934925;29;20182;-71
2023/09/21 09:56:10;;;;;;;2.80;1.80;;;16.90;99.90;;;;;;4945619;29;20194;-73
2023/09/21 09:58:41;;;;;;;2.45;1.60;;;16.90;99.90;;;;;;4963624;28;20190;-72
2023/09/21 10:01:09;;;;;;;2.80;1.27;;;16.90;99.90;;;;;;4952815;29;20234;-70
2023/09/21 10:03:38;;;;;;;4.93;2.95;;;16.80;99.90;;;;;;4952872;28;20234;-70
2023/09/21 10:06:08;;;;;;;2.58;1.55;;;16.80;99.90;;;;;;4955107;29;20222;-69
2023/09/21 10:08:38;;;;;;;3.22;1.50;;;16.80;99.90;;;;;;4952675;29;20194;-70
2023/09/21 10:11:07;;;;;;;4.95;1.70;;;16.80;99.90;;;;;;4956735;29;20197;-69
2023/09/21 10:13:48;;;;;;;4.70;1.70;;;16.80;99.90;;;;;;4924161;29;20500;-70
2023/09/21 10:16:17;;;;;;;2.10;1.50;;;16.80;99.90;;;;;;4937818;29;20201;-71
2023/09/21 10:18:43;;;;;;;2.55;1.50;;;16.80;99.90;;;;;;4952118;29;20209;-71
2023/09/21 10:21:31;;;;;;;2.65;1.50;;;16.70;99.90;;;;;;4952626;29;20178;-72
2023/09/21 10:24:13;;;;;;;1.88;1.27;;;16.80;99.90;;;;;;4939265;29;20202;-71
2023/09/21 10:26:45;;;;;;;2.17;1.27;;;16.80;99.90;;;;;;4938881;29;20891;-72
2023/09/21 10:29:12;;;;;;;1.70;1.10;;;16.70;99.90;;;;;;4951531;29;20205;-72
2023/09/21 10:31:41;;;;;;;3.22;1.60;;;16.70;99.90;;;;;;4955876;29;20296;-72
2023/09/21 10:34:16;;;;;;;3.03;1.75;;;16.70;99.90;;;;;;4956485;29;20214;-72
2023/09/21 10:37:00;;;;;;;1.55;1.17;;;16.70;99.90;;;;;;4939332;29;20201;-72
2023/09/21 10:39:29;;;;;;;4.22;1.13;;;16.70;99.90;;;;;;4951004;29;20223;-71
2023/09/21 10:42:04;;;;;;;2.05;1.05;;;16.70;99.90;;;;;;4955054;29;20273;-71
2023/09/21 10:45:05;;;;;;;5.38;1.20;;;16.70;99.90;;;;;;4956439;29;20238;-71
2023/09/21 10:47:48;;;;;;;1.75;1.10;;;16.80;99.90;;;;;;4954563;28;20662;-69
2023/09/21 10:50:20;;;;;;;2.28;1.35;;;16.70;99.90;;;;;;4950168;29;20814;-71
2023/09/21 10:52:55;;;;;;;2.15;1.60;;;16.80;99.90;;;;;;4954198;29;20178;-72
2023/09/21 10:55:21;;;;;;;2.80;1.00;;;16.80;99.90;;;;;;4951417;29;20364;-72
2023/09/21 10:57:49;;;;;;;3.00;2.00;;;16.90;99.90;;;;;;4956136;29;20625;-72
2023/09/21 11:00:17;;;;;;;2.88;1.63;;;16.90;99.90;;;;;;4938911;29;20191;-71
2023/09/21 11:02:46;;;;;;;16.42;11.85;;;17.00;99.90;;;;;;4937214;29;20552;-73
2023/09/21 11:05:16;;;;;;;4.95;2.20;;;17.00;99.90;;;;;;4934719;29;20609;-72
2023/09/21 11:07:44;;;;;;;5.15;3.08;;;17.10;99.90;;;;;;4902108;29;20207;-70
2023/09/21 11:10:11;;;;;;;9.90;7.60;;;17.20;99.90;;;;;;4953361;29;20277;-70
2023/09/21 11:12:41;;;;;;;5.35;2.42;;;17.40;99.90;;;;;;4935431;29;20282;-71
2023/09/21 11:15:09;;;;;;;5.50;2.40;;;17.60;99.90;;;;;;4947674;28;20234;-72
2023/09/21 11:17:35;;;;;;;3.70;2.10;;;17.70;99.90;;;;;;4951290;28;20523;-73
2023/09/21 11:20:02;;;;;;;3.67;2.13;;;17.80;99.90;;;;;;4938743;29;20187;-71
2023/09/21 11:22:29;;;;;;;3.97;1.80;;;17.80;99.90;;;;;;4955568;29;20221;-73
2023/09/21 11:24:55;;;;;;;4.28;2.25;;;17.80;99.90;;;;;;4935115;29;20205;-70
2023/09/21 11:27:26;;;;;;;3.47;2.25;;;17.80;99.90;;;;;;4954015;29;20194;-72
2023/09/21 11:29:53;;;;;;;3.00;2.17;;;17.80;99.90;;;;;;4953587;28;20624;-71
2023/09/21 11:32:21;;;;;;;4.65;2.55;;;17.80;99.90;;;;;;4954843;29;20550;-72
2023/09/21 11:34:47;;;;;;;6.38;2.72;;;17.80;99.90;;;;;;4951946;29;20202;-71
2023/09/21 11:37:14;;;;;;;3.17;2.15;;;17.80;99.90;;;;;;4939081;29;20217;-73
2023/09/21 11:39:46;;;;;;;4.18;2.53;;;17.80;99.90;;;;;;4939750;29;20191;-72
2023/09/21 11:42:15;;;;;;;6.32;2.00;;;17.80;99.90;;;;;;4938110;29;20195;-72
2023/09/21 11:44:42;;;;;;;3.20;1.60;;;17.80;99.90;;;;;;4952472;29;20199;-72
2023/09/21 11:47:09;;;;;;;3.63;2.47;;;17.80;99.90;;;;;;4951380;29;20635;-72
2023/09/21 11:49:37;;;;;;;4.60;2.38;;;17.80;99.90;;;;;;4955284;29;20198;-72
2023/09/21 11:52:04;;;;;;;3.75;2.00;;;17.80;99.90;;;;;;4954228;29;20179;-72
2023/09/21 11:54:34;;;;;;;2.85;2.17;;;17.80;99.90;;;;;;4953883;29;20242;-73
2023/09/21 11:57:01;;;;;;;4.93;2.40;;;17.90;99.90;;;;;;4950054;28;20199;-72
2023/09/21 11:59:26;;;;;;;5.32;2.45;;;17.90;99.90;;;;;;4933111;29;20195;-73
2023/09/21 12:01:55;;;;;;;7.30;3.92;;;18.00;99.90;;;;;;4954073;29;20197;-73
2023/09/21 12:04:22;;;;;;;12.60;8.70;;;18.00;99.90;;;;;;4938071;29;20342;-73
2023/09/21 12:06:51;;;;;;;2.97;2.15;;;18.00;99.90;;;;;;4929806;29;20539;-73
2023/09/21 12:09:18;;;;;;;3.78;2.13;;;18.00;99.90;;;;;;4953696;29;20277;-73
2023/09/21 12:11:48;;;;;;;4.03;1.50;;;18.00;99.90;;;;;;4954609;29;20190;-73
2023/09/21 12:14:14;;;;;;;4.03;1.60;;;18.00;99.90;;;;;;4966716;28;20234;-70
2023/09/21 12:16:40;;;;;;;2.08;1.73;;;17.90;99.90;;;;;;4942092;29;20226;-72
2023/09/21 12:19:08;;;;;;;1.83;1.33;;;17.80;99.90;;;;;;4950125;29;20266;-73
2023/09/21 12:21:34;;;;;;;3.80;2.00;;;17.80;99.90;;;;;;4952473;29;20610;-74
2023/09/21 12:24:02;;;;;;;2.20;1.60;;;17.70;99.90;;;;;;4948977;29;20186;-71
2023/09/21 12:26:29;;;;;;;3.50;1.65;;;17.70;99.90;;;;;;4956810;28;20198;-73
2023/09/21 12:28:56;;;;;;;2.22;1.58;;;17.60;99.90;;;;;;4949032;29;20210;-73
2023/09/21 12:31:22;;;;;;;1.67;1.20;;;17.70;99.90;;;;;;4966625;28;20194;-73
2023/09/21 12:33:50;;;;;;;1.48;1.17;;;17.60;99.90;;;;;;4954155;29;20194;-76
2023/09/21 12:36:17;;;;;;;3.63;1.50;;;17.60;99.90;;;;;;4934596;29;20257;-72
2023/09/21 12:38:43;;;;;;;2.78;1.35;;;17.60;99.90;;;;;;4947781;29;20182;-74
2023/09/21 12:41:09;;;;;;;2.10;1.35;;;17.60;99.90;;;;;;4950318;28;20191;-73
2023/09/21 12:43:38;;;;;;;2.83;1.67;;;17.70;99.90;;;;;;4956335;28;20248;-74
2023/09/21 12:46:08;;;;;;;2.38;1.60;;;17.70;99.90;;;;;;4943049;29;20253;-74
2023/09/21 12:48:36;;;;;;;2.30;1.50;;;17.70;99.90;;;;;;4950390;29;20193;-72
2023/09/21 12:51:03;;;;;;;2.67;1.52;;;17.70;99.90;;;;;;4950782;29;20191;-72
2023/09/21 12:53:29;;;;;;;3.05;1.63;;;17.70;99.90;;;;;;4953906;29;20210;-75